Time;durP1;ratioP1;P1;durP2;ratioP2;P2;SDS_P1;SDS_P2;PMS_P1;PMS_P2;Temp;Humidity;BMP_temperature;BMP_pressure;BME280_temperature;BME280_humidity;BME280_pressure;Samples;Min_cycle;Max_cycle;Signal;HPM_P1;HPM_P2
2022/10/09 00:02:08;;;;;;;;;;;;;;;;;;5060951;28;862;-69
2022/10/09 00:04:33;;;;;;;;;;;;;;;;;;5060806;28;1925;-69
2022/10/09 00:06:59;;;;;;;;;;;;;;;;;;5060764;28;989;-69
2022/10/09 00:09:24;;;;;;;;;;;;;;;;;;5060985;28;1168;-69
2022/10/09 00:11:49;;;;;;;;;;;;;;;;;;5061004;28;846;-69
2022/10/09 00:14:14;;;;;;;;;;;;;;;;;;5060981;28;861;-69
2022/10/09 00:16:40;;;;;;;;;;;;;;;;;;5060604;28;811;-69
2022/10/09 00:19:05;;;;;;;;;;;;;;;;;;5060822;28;1270;-69
2022/10/09 00:21:31;;;;;;;;;;;;;;;;;;5061054;28;839;-69
2022/10/09 00:23:59;;;;;;;;;;;;;;;;;;5061090;28;874;-69
2022/10/09 00:26:25;;;;;;;;;;;;;;;;;;5060696;28;1870;-69
2022/10/09 00:28:50;;;;;;;;;;;;;;;;;;5060825;28;1266;-69
2022/10/09 00:31:16;;;;;;;;;;;;;;;;;;5060909;28;814;-69
2022/10/09 00:33:41;;;;;;;;;;;;;;;;;;5060652;28;803;-69
2022/10/09 00:36:08;;;;;;;;;;;;;;;;;;5060481;28;1016;-69
2022/10/09 00:38:33;;;;;;;;;;;;;;;;;;5060489;28;1168;-69
2022/10/09 00:40:58;;;;;;;;;;;;;;;;;;5060623;28;937;-69
2022/10/09 00:43:44;;;;;;;;;;;;;;;;;;5060473;28;1069;-69
2022/10/09 00:46:27;;;;;;;;;;;;;;;;;;5060112;28;1893;-69
2022/10/09 00:48:56;;;;;;;;;;;;;;;;;;5079534;22;3791;-77
2022/10/09 00:51:22;;;;;;;;;;;;;;;;;;5062671;28;925;-77
2022/10/09 00:53:47;;;;;;;;;;;;;;;;;;5080568;28;1056;-77
2022/10/09 00:56:12;;;;;;;;;;;;;;;;;;5080391;28;874;-77
2022/10/09 00:58:37;;;;;;;;;;;;;;;;;;5080303;28;1176;-76
2022/10/09 01:01:02;;;;;;;;;;;;;;;;;;5080533;28;937;-76
2022/10/09 01:03:27;;;;;;;;;;;;;;;;;;5080354;28;997;-77
2022/10/09 01:06:01;;;;;;;;;;;;;;;;;;5083431;28;1905;-77
2022/10/09 01:08:29;;;;;;;;;;;;;;;;;;5083740;28;1297;-76
2022/10/09 01:11:07;;;;;;;;;;;;;;;;;;5083961;28;910;-77
2022/10/09 01:13:41;;;;;;;;;;;;;;;;;;5082199;28;811;-77
2022/10/09 01:16:12;;;;;;;;;;;;;;;;;;5083316;28;981;-77
2022/10/09 01:18:55;;;;;;;;;;;;;;;;;;5083685;28;1275;-77
2022/10/09 01:21:27;;;;;;;;;;;;;;;;;;5083852;28;1001;-77
2022/10/09 01:24:01;;;;;;;;;;;;;;;;;;5083586;28;914;-77
2022/10/09 01:26:45;;;;;;;;;;;;;;;;;;5083408;28;1950;-77
2022/10/09 01:29:10;;;;;;;;;;;;;;;;;;5083537;28;1250;-77
2022/10/09 01:31:41;;;;;;;;;;;;;;;;;;5083746;28;929;-77
2022/10/09 01:34:06;;;;;;;;;;;;;;;;;;5083240;28;806;-77
2022/10/09 01:36:32;;;;;;;;;;;;;;;;;;5083208;28;1065;-77
2022/10/09 01:38:59;;;;;;;;;;;;;;;;;;5083364;28;1156;-77
2022/10/09 01:41:25;;;;;;;;;;;;;;;;;;5065270;28;949;-77
2022/10/09 01:43:50;;;;;;;;;;;;;;;;;;5083415;28;1056;-77
2022/10/09 01:46:17;;;;;;;;;;;;;;;;;;5082844;28;1893;-78
2022/10/09 01:48:43;;;;;;;;;;;;;;;;;;5083028;28;1250;-76
2022/10/09 01:51:08;;;;;;;;;;;;;;;;;;5083274;28;866;-77
2022/10/09 01:53:35;;;;;;;;;;;;;;;;;;5083188;28;803;-76
2022/10/09 01:56:06;;;;;;;;;;;;;;;;;;5082923;28;981;-76
2022/10/09 01:58:38;;;;;;;;;;;;;;;;;;5065319;28;1160;-76
2022/10/09 02:01:09;;;;;;;;;;;;;;;;;;5083011;28;861;-76
2022/10/09 02:03:35;;;;;;;;;;;;;;;;;;5082887;28;902;-77
2022/10/09 02:06:02;;;;;;;;;;;;;;;;;;5082720;28;1907;-77
2022/10/09 02:08:28;;;;;;;;;;;;;;;;;;5082926;28;1148;-76
2022/10/09 02:10:55;;;;;;;;;;;;;;;;;;5082860;28;1025;-77
2022/10/09 02:13:21;;;;;;;;;;;;;;;;;;5082902;28;893;-76
2022/10/09 02:15:48;;;;;;;;;;;;;;;;;;5081733;28;913;-77
2022/10/09 02:18:15;;;;;;;;;;;;;;;;;;5082960;28;1208;-76
2022/10/09 02:20:43;;;;;;;;;;;;;;;;;;5083314;28;743;-76
2022/10/09 02:23:09;;;;;;;;;;;;;;;;;;5082872;28;996;-76
2022/10/09 02:25:35;;;;;;;;;;;;;;;;;;5082404;28;1958;-76
2022/10/09 02:28:00;;;;;;;;;;;;;;;;;;5082724;28;901;-76
2022/10/09 02:30:28;;;;;;;;;;;;;;;;;;5082388;28;1048;-76
2022/10/09 02:32:53;;;;;;;;;;;;;;;;;;5082524;28;961;-77
2022/10/09 02:35:19;;;;;;;;;;;;;;;;;;5082285;28;806;-76
2022/10/09 02:37:44;;;;;;;;;;;;;;;;;;5082529;28;838;-76
2022/10/09 02:40:10;;;;;;;;;;;;;;;;;;5082621;28;1226;-76
2022/10/09 02:42:35;;;;;;;;;;;;;;;;;;5082249;28;1087;-77
2022/10/09 02:45:00;;;;;;;;;;;;;;;;;;5081994;28;1901;-77
2022/10/09 02:47:25;;;;;;;;;;;;;;;;;;5082196;28;818;-76
2022/10/09 02:49:50;;;;;;;;;;;;;;;;;;5082302;28;1164;-76
2022/10/09 02:52:16;;;;;;;;;;;;;;;;;;5082150;28;902;-77
2022/10/09 02:54:41;;;;;;;;;;;;;;;;;;5081852;28;1009;-76
2022/10/09 02:57:06;;;;;;;;;;;;;;;;;;5082137;28;786;-76
2022/10/09 02:59:31;;;;;;;;;;;;;;;;;;5082018;28;1184;-77
2022/10/09 03:01:56;;;;;;;;;;;;;;;;;;5082053;28;884;-76
2022/10/09 03:04:21;;;;;;;;;;;;;;;;;;5081959;28;1053;-76
2022/10/09 03:06:47;;;;;;;;;;;;;;;;;;5081746;28;1902;-76
2022/10/09 03:09:12;;;;;;;;;;;;;;;;;;5081966;28;1183;-77
2022/10/09 03:11:37;;;;;;;;;;;;;;;;;;5081760;28;965;-77
2022/10/09 03:14:02;;;;;;;;;;;;;;;;;;5082024;28;910;-76
2022/10/09 03:16:27;;;;;;;;;;;;;;;;;;5081471;28;1037;-77
2022/10/09 03:18:53;;;;;;;;;;;;;;;;;;5081805;28;1176;-76
2022/10/09 03:21:21;;;;;;;;;;;;;;;;;;5081756;28;861;-76
2022/10/09 03:23:47;;;;;;;;;;;;;;;;;;5081668;28;1410;-77
2022/10/09 03:26:14;;;;;;;;;;;;;;;;;;5081549;28;1981;-77
2022/10/09 03:28:40;;;;;;;;;;;;;;;;;;5080388;28;1140;-76
2022/10/09 03:31:06;;;;;;;;;;;;;;;;;;5081626;28;862;-76
2022/10/09 03:33:32;;;;;;;;;;;;;;;;;;5081520;28;957;-76
2022/10/09 03:35:57;;;;;;;;;;;;;;;;;;5081665;28;767;-76
2022/10/09 03:38:22;;;;;;;;;;;;;;;;;;5081471;28;1266;-76
2022/10/09 03:40:47;;;;;;;;;;;;;;;;;;5081583;28;1048;-76
2022/10/09 03:43:13;;;;;;;;;;;;;;;;;;5081224;28;997;-76
2022/10/09 03:45:39;;;;;;;;;;;;;;;;;;5081117;28;1897;-76
2022/10/09 03:48:04;;;;;;;;;;;;;;;;;;5081303;28;1259;-76
2022/10/09 03:50:29;;;;;;;;;;;;;;;;;;5081443;28;938;-76
2022/10/09 03:52:54;;;;;;;;;;;;;;;;;;5081412;28;1029;-76
2022/10/09 03:55:20;;;;;;;;;;;;;;;;;;5081099;28;841;-76
2022/10/09 03:57:45;;;;;;;;;;;;;;;;;;5081021;28;899;-76
2022/10/09 04:00:10;;;;;;;;;;;;;;;;;;5081054;28;1164;-76
2022/10/09 04:02:35;;;;;;;;;;;;;;;;;;5081175;28;981;-77
2022/10/09 04:05:01;;;;;;;;;;;;;;;;;;5080920;28;1968;-77
2022/10/09 04:07:26;;;;;;;;;;;;;;;;;;5081015;28;992;-77
2022/10/09 04:09:51;;;;;;;;;;;;;;;;;;5081150;28;1140;-77
2022/10/09 04:12:16;;;;;;;;;;;;;;;;;;5081290;28;857;-77
2022/10/09 04:14:41;;;;;;;;;;;;;;;;;;5081052;28;759;-77
2022/10/09 04:17:07;;;;;;;;;;;;;;;;;;5081184;28;1047;-77
2022/10/09 04:19:32;;;;;;;;;;;;;;;;;;5080871;28;1163;-77
2022/10/09 04:21:57;;;;;;;;;;;;;;;;;;5081161;28;910;-77
2022/10/09 04:24:22;;;;;;;;;;;;;;;;;;5080781;28;799;-77
2022/10/09 04:26:47;;;;;;;;;;;;;;;;;;5080824;28;1886;-77
2022/10/09 04:29:12;;;;;;;;;;;;;;;;;;5062738;28;1176;-77
2022/10/09 04:31:38;;;;;;;;;;;;;;;;;;5081111;28;822;-78
2022/10/09 04:34:03;;;;;;;;;;;;;;;;;;5080736;28;997;-78
2022/10/09 04:36:28;;;;;;;;;;;;;;;;;;5062684;28;1052;-77
2022/10/09 04:38:53;;;;;;;;;;;;;;;;;;5081201;28;1243;-77
2022/10/09 04:41:18;;;;;;;;;;;;;;;;;;5084880;28;850;-77
2022/10/09 04:43:43;;;;;;;;;;;;;;;;;;5083982;28;783;-77
2022/10/09 04:46:11;;;;;;;;;;;;;;;;;;5084037;28;1913;-77
2022/10/09 04:48:37;;;;;;;;;;;;;;;;;;5084233;28;1203;-77
2022/10/09 04:51:03;;;;;;;;;;;;;;;;;;5084212;28;791;-78
2022/10/09 04:53:28;;;;;;;;;;;;;;;;;;5084147;28;941;-77
2022/10/09 04:55:53;;;;;;;;;;;;;;;;;;5083769;28;815;-78
2022/10/09 04:58:18;;;;;;;;;;;;;;;;;;5083738;28;1282;-77
2022/10/09 05:00:44;;;;;;;;;;;;;;;;;;5084247;28;791;-78
2022/10/09 05:03:10;;;;;;;;;;;;;;;;;;5084081;28;897;-77
2022/10/09 05:05:35;;;;;;;;;;;;;;;;;;5083668;28;1968;-78
2022/10/09 05:08:00;;;;;;;;;;;;;;;;;;5083945;28;1258;-77
2022/10/09 05:10:25;;;;;;;;;;;;;;;;;;5083813;28;940;-78
2022/10/09 05:12:51;;;;;;;;;;;;;;;;;;5083793;28;1032;-77
2022/10/09 05:15:16;;;;;;;;;;;;;;;;;;5083185;28;901;-77
2022/10/09 05:17:41;;;;;;;;;;;;;;;;;;5083794;28;783;-77
2022/10/09 05:20:06;;;;;;;;;;;;;;;;;;5083364;28;1180;-77
2022/10/09 05:22:32;;;;;;;;;;;;;;;;;;5084066;28;732;-77
2022/10/09 05:24:57;;;;;;;;;;;;;;;;;;5083284;28;1961;-77
2022/10/09 05:27:22;;;;;;;;;;;;;;;;;;5083546;28;1025;-77
2022/10/09 05:29:47;;;;;;;;;;;;;;;;;;5083244;28;1175;-77
2022/10/09 05:32:13;;;;;;;;;;;;;;;;;;5083509;28;1037;-77
2022/10/09 05:34:39;;;;;;;;;;;;;;;;;;5083104;28;823;-77
2022/10/09 05:37:04;;;;;;;;;;;;;;;;;;5065428;28;945;-77
2022/10/09 05:39:31;;;;;;;;;;;;;;;;;;5083529;28;1247;-77
2022/10/09 05:41:56;;;;;;;;;;;;;;;;;;5083918;28;893;-78
2022/10/09 05:44:21;;;;;;;;;;;;;;;;;;5083255;28;847;-77
2022/10/09 05:46:46;;;;;;;;;;;;;;;;;;5083168;28;1890;-77
2022/10/09 05:49:11;;;;;;;;;;;;;;;;;;5083224;28;1176;-77
2022/10/09 05:51:37;;;;;;;;;;;;;;;;;;5082300;28;847;-77
2022/10/09 05:54:03;;;;;;;;;;;;;;;;;;5083177;28;913;-76
2022/10/09 05:56:30;;;;;;;;;;;;;;;;;;5080867;28;980;-78
2022/10/09 05:58:59;;;;;;;;;;;;;;;;;;5065466;28;1313;-78
2022/10/09 06:01:25;;;;;;;;;;;;;;;;;;5083128;28;948;-78
2022/10/09 06:03:52;;;;;;;;;;;;;;;;;;5083164;28;798;-78
2022/10/09 06:06:17;;;;;;;;;;;;;;;;;;5082594;28;1968;-78
2022/10/09 06:08:43;;;;;;;;;;;;;;;;;;5082848;28;1262;-76
2022/10/09 06:11:15;;;;;;;;;;;;;;;;;;5082938;28;767;-76
2022/10/09 06:13:41;;;;;;;;;;;;;;;;;;5082731;28;869;-76
2022/10/09 06:16:07;;;;;;;;;;;;;;;;;;5082534;28;921;-76
2022/10/09 06:18:32;;;;;;;;;;;;;;;;;;5082785;28;1180;-76
2022/10/09 06:20:59;;;;;;;;;;;;;;;;;;5082775;28;837;-77
2022/10/09 06:23:24;;;;;;;;;;;;;;;;;;5082673;28;1052;-77
2022/10/09 06:25:50;;;;;;;;;;;;;;;;;;5082207;28;1898;-76
2022/10/09 06:28:15;;;;;;;;;;;;;;;;;;5082439;28;1243;-77
2022/10/09 06:30:40;;;;;;;;;;;;;;;;;;5082542;28;1047;-77
2022/10/09 06:33:05;;;;;;;;;;;;;;;;;;5082306;28;937;-77
2022/10/09 06:35:33;;;;;;;;;;;;;;;;;;5082558;28;799;-77
2022/10/09 06:37:58;;;;;;;;;;;;;;;;;;5082361;28;977;-77
2022/10/09 06:40:23;;;;;;;;;;;;;;;;;;5082178;28;1199;-77
2022/10/09 06:42:48;;;;;;;;;;;;;;;;;;5082602;28;771;-77
2022/10/09 06:45:13;;;;;;;;;;;;;;;;;;5081898;28;1898;-77
2022/10/09 06:47:38;;;;;;;;;;;;;;;;;;5082183;28;985;-77
2022/10/09 06:50:04;;;;;;;;;;;;;;;;;;5095001;22;3752;-77
2022/10/09 06:52:29;;;;;;;;;;;;;;;;;;5082294;28;978;-76
2022/10/09 06:54:54;;;;;;;;;;;;;;;;;;5081835;28;993;-76
2022/10/09 06:57:19;;;;;;;;;;;;;;;;;;5082445;28;921;-77
2022/10/09 06:59:48;;;;;;;;;;;;;;;;;;5082043;28;1128;-77
2022/10/09 07:02:14;;;;;;;;;;;;;;;;;;5082030;28;803;-77
2022/10/09 07:04:39;;;;;;;;;;;;;;;;;;5081724;28;1918;-76
2022/10/09 07:07:04;;;;;;;;;;;;;;;;;;5081772;28;997;-76
2022/10/09 07:09:29;;;;;;;;;;;;;;;;;;5081704;28;1148;-76
2022/10/09 07:11:55;;;;;;;;;;;;;;;;;;5082028;28;867;-76
2022/10/09 07:14:20;;;;;;;;;;;;;;;;;;5081852;28;938;-76
2022/10/09 07:16:46;;;;;;;;;;;;;;;;;;5081792;28;775;-76
2022/10/09 07:19:12;;;;;;;;;;;;;;;;;;5081787;28;1168;-76
2022/10/09 07:21:38;;;;;;;;;;;;;;;;;;5081866;28;816;-76
2022/10/09 07:24:03;;;;;;;;;;;;;;;;;;5081617;28;961;-76
2022/10/09 07:26:30;;;;;;;;;;;;;;;;;;5081403;28;1890;-76
2022/10/09 07:28:56;;;;;;;;;;;;;;;;;;5081552;28;1156;-76
2022/10/09 07:31:21;;;;;;;;;;;;;;;;;;5081766;28;869;-76
2022/10/09 07:33:47;;;;;;;;;;;;;;;;;;5081583;28;835;-77
2022/10/09 07:36:12;;;;;;;;;;;;;;;;;;5081197;28;866;-77
2022/10/09 07:38:38;;;;;;;;;;;;;;;;;;5081357;28;1242;-76
2022/10/09 07:41:08;;;;;;;;;;;;;;;;;;5081559;28;849;-76
2022/10/09 07:43:34;;;;;;;;;;;;;;;;;;5081319;28;1120;-77
2022/10/09 07:46:00;;;;;;;;;;;;;;;;;;5081078;28;1942;-77
2022/10/09 07:48:25;;;;;;;;;;;;;;;;;;5081246;28;1139;-76
2022/10/09 07:50:50;;;;;;;;;;;;;;;;;;5081407;28;927;-77
2022/10/09 07:53:16;;;;;;;;;;;;;;;;;;5081413;28;787;-76
2022/10/09 07:55:45;;;;;;;;;;;;;;;;;;5080816;28;838;-76
2022/10/09 07:58:10;;;;;;;;;;;;;;;;;;5081602;28;826;-76
2022/10/09 08:00:35;;;;;;;;;;;;;;;;;;5081128;28;1164;-77
2022/10/09 08:03:00;;;;;;;;;;;;;;;;;;5081437;28;803;-76
2022/10/09 08:05:26;;;;;;;;;;;;;;;;;;5080656;28;1894;-77
2022/10/09 08:07:51;;;;;;;;;;;;;;;;;;5081217;28;840;-77
2022/10/09 08:10:16;;;;;;;;;;;;;;;;;;5080895;28;1172;-77
2022/10/09 08:12:41;;;;;;;;;;;;;;;;;;5081520;28;854;-76
2022/10/09 08:15:07;;;;;;;;;;;;;;;;;;5085710;28;1001;-76
2022/10/09 08:17:32;;;;;;;;;;;;;;;;;;5087689;28;1055;-77
2022/10/09 08:19:57;;;;;;;;;;;;;;;;;;5069586;28;1234;-76
2022/10/09 08:22:22;;;;;;;;;;;;;;;;;;5087743;28;977;-77
2022/10/09 08:24:48;;;;;;;;;;;;;;;;;;5087544;28;1960;-77
2022/10/09 08:27:13;;;;;;;;;;;;;;;;;;5087531;28;836;-77
2022/10/09 08:29:38;;;;;;;;;;;;;;;;;;5087558;28;1148;-77
2022/10/09 08:32:03;;;;;;;;;;;;;;;;;;5087908;28;890;-77
2022/10/09 08:34:28;;;;;;;;;;;;;;;;;;5087319;28;862;-77
2022/10/09 08:36:53;;;;;;;;;;;;;;;;;;5069340;28;961;-76
2022/10/09 08:39:19;;;;;;;;;;;;;;;;;;5087699;28;1226;-77
2022/10/09 08:41:46;;;;;;;;;;;;;;;;;;5087464;28;832;-77
2022/10/09 08:44:14;;;;;;;;;;;;;;;;;;5087755;28;810;-77
2022/10/09 08:46:42;;;;;;;;;;;;;;;;;;5086902;28;1967;-76
2022/10/09 08:49:10;;;;;;;;;;;;;;;;;;5087312;28;1148;-76
2022/10/09 08:51:36;;;;;;;;;;;;;;;;;;5087394;28;1008;-76
2022/10/09 08:54:12;;;;;;;;;;;;;;;;;;5087362;28;795;-77
2022/10/09 08:56:37;;;;;;;;;;;;;;;;;;5087121;28;937;-77
2022/10/09 08:59:02;;;;;;;;;;;;;;;;;;5087480;28;1167;-77
2022/10/09 09:01:50;;;;;;;;;;;;;;;;;;5087071;28;810;-77
2022/10/09 09:04:15;;;;;;;;;;;;;;;;;;5040170;28;1469;-77
2022/10/09 09:06:44;;;;;;;;;;;;;;;;;;5086654;28;1897;-78
2022/10/09 09:09:23;;;;;;;;;;;;;;;;;;5087279;28;1330;-77
2022/10/09 09:12:06;;;;;;;;;;;;;;;;;;5087173;28;1029;-77
2022/10/09 09:14:57;;;;;;;;;;;;;;;;;;5086815;28;756;-77
2022/10/09 09:17:23;;;;;;;;;;;;;;;;;;5082153;28;1092;-77
2022/10/09 09:19:48;;;;;;;;;;;;;;;;;;5087045;28;1199;-77
2022/10/09 09:22:14;;;;;;;;;;;;;;;;;;5086871;28;1036;-77
2022/10/09 09:24:42;;;;;;;;;;;;;;;;;;5086581;28;822;-77
2022/10/09 09:27:27;;;;;;;;;;;;;;;;;;5083385;28;1917;-77
2022/10/09 09:30:11;;;;;;;;;;;;;;;;;;5083692;28;1247;-77
2022/10/09 09:32:38;;;;;;;;;;;;;;;;;;5083477;28;823;-77
2022/10/09 09:35:22;;;;;;;;;;;;;;;;;;5083280;28;1009;-77
2022/10/09 09:37:48;;;;;;;;;;;;;;;;;;5083219;28;1037;-78
2022/10/09 09:40:14;;;;;;;;;;;;;;;;;;5083489;28;1214;-77
2022/10/09 09:42:40;;;;;;;;;;;;;;;;;;5083668;28;818;-77
2022/10/09 09:45:06;;;;;;;;;;;;;;;;;;5083094;28;1961;-77
2022/10/09 09:47:33;;;;;;;;;;;;;;;;;;5083296;28;854;-76
2022/10/09 09:49:59;;;;;;;;;;;;;;;;;;5083332;28;1151;-76
2022/10/09 09:52:27;;;;;;;;;;;;;;;;;;5083484;28;831;-77
2022/10/09 09:54:54;;;;;;;;;;;;;;;;;;5083612;28;877;-77
2022/10/09 09:57:26;;;;;;;;;;;;;;;;;;5083471;28;1061;-77
2022/10/09 09:59:51;;;;;;;;;;;;;;;;;;5083426;28;1752;-77
2022/10/09 10:02:18;;;;;;;;;;;;;;;;;;5083192;28;1004;-77
2022/10/09 10:04:51;;;;;;;;;;;;;;;;;;5082912;28;1032;-77
2022/10/09 10:07:31;;;;;;;;;;;;;;;;;;5082752;28;896;-77
2022/10/09 10:10:00;;;;;;;;;;;;;;;;;;5082990;28;1175;-77
2022/10/09 10:12:25;;;;;;;;;;;;;;;;;;5082863;28;854;-77
2022/10/09 10:14:50;;;;;;;;;;;;;;;;;;5082599;28;1063;-77
2022/10/09 10:17:24;;;;;;;;;;;;;;;;;;5082524;28;993;-77
2022/10/09 10:19:49;;;;;;;;;;;;;;;;;;5082851;28;1176;-76
2022/10/09 10:22:24;;;;;;;;;;;;;;;;;;5082694;28;842;-77
2022/10/09 10:24:51;;;;;;;;;;;;;;;;;;5082494;28;1960;-77
2022/10/09 10:27:16;;;;;;;;;;;;;;;;;;5082450;28;868;-77
2022/10/09 10:29:42;;;;;;;;;;;;;;;;;;5082696;28;1167;-77
2022/10/09 10:32:16;;;;;;;;;;;;;;;;;;5082462;28;1001;-77
2022/10/09 10:34:51;;;;;;;;;;;;;;;;;;5064397;28;874;-77
2022/10/09 10:37:22;;;;;;;;;;;;;;;;;;5081602;28;906;-77
2022/10/09 10:39:49;;;;;;;;;;;;;;;;;;5082444;28;1243;-77
2022/10/09 10:42:23;;;;;;;;;;;;;;;;;;5082540;28;811;-77
2022/10/09 10:44:55;;;;;;;;;;;;;;;;;;5082307;28;1897;-77
2022/10/09 10:47:22;;;;;;;;;;;;;;;;;;5082106;28;1232;-77
2022/10/09 10:49:47;;;;;;;;;;;;;;;;;;5082362;28;1262;-76
2022/10/09 10:52:22;;;;;;;;;;;;;;;;;;5082026;28;823;-76
2022/10/09 10:54:57;;;;;;;;;;;;;;;;;;5082000;28;906;-76
2022/10/09 10:57:28;;;;;;;;;;;;;;;;;;5081962;28;925;-76
2022/10/09 10:59:59;;;;;;;;;;;;;;;;;;5082488;28;1268;-76
2022/10/09 11:02:33;;;;;;;;;;;;;;;;;;5082207;28;803;-76
2022/10/09 11:05:04;;;;;;;;;;;;;;;;;;5081794;28;1894;-76
2022/10/09 11:07:42;;;;;;;;;;;;;;;;;;5081844;28;891;-76
2022/10/09 11:10:26;;;;;;;;;;;;;;;;;;5082019;28;1263;-76
2022/10/09 11:13:02;;;;;;;;;;;;;;;;;;5082028;28;1051;-77
2022/10/09 11:15:29;;;;;;;;;;;;;;;;;;5081789;28;874;-77
2022/10/09 11:18:07;;;;;;;;;;;;;;;;;;5063688;28;859;-77
2022/10/09 11:20:51;;;;;;;;;;;;;;;;;;5081919;28;1259;-77
2022/10/09 11:23:19;;;;;;;;;;;;;;;;;;5081953;28;862;-77
2022/10/09 11:25:44;;;;;;;;;;;;;;;;;;5081605;28;1898;-77
2022/10/09 11:28:09;;;;;;;;;;;;;;;;;;5063596;28;1509;-77
2022/10/09 11:30:56;;;;;;;;;;;;;;;;;;5081672;28;1148;-76
2022/10/09 11:33:35;;;;;;;;;;;;;;;;;;5081726;28;1097;-77
2022/10/09 11:36:03;;;;;;;;;;;;;;;;;;5081396;28;905;-76
2022/10/09 11:38:49;;;;;;;;;;;;;;;;;;5081349;28;1172;-76
2022/10/09 11:41:14;;;;;;;;;;;;;;;;;;5064586;28;1800;-76
2022/10/09 11:43:40;;;;;;;;;;;;;;;;;;5063476;28;902;-76
2022/10/09 11:46:24;;;;;;;;;;;;;;;;;;5081703;28;1959;-76
2022/10/09 11:48:53;;;;;;;;;;;;;;;;;;5079945;28;1290;-76
2022/10/09 11:51:27;;;;;;;;;;;;;;;;;;5081600;28;826;-76
2022/10/09 11:53:53;;;;;;;;;;;;;;;;;;5081331;28;861;-76
2022/10/09 11:56:25;;;;;;;;;;;;;;;;;;5081222;28;870;-76
2022/10/09 11:59:19;;;;;;;;;;;;;;;;;;5080967;28;1192;-76
2022/10/09 12:01:46;;;;;;;;;;;;;;;;;;5059662;28;1585;-76
2022/10/09 12:04:11;;;;;;;;;;;;;;;;;;5081132;28;894;-76
2022/10/09 12:06:53;;;;;;;;;;;;;;;;;;5081098;28;1901;-76
2022/10/09 12:09:21;;;;;;;;;;;;;;;;;;5080882;28;1223;-76
2022/10/09 12:11:53;;;;;;;;;;;;;;;;;;5081175;28;957;-76
2022/10/09 12:14:23;;;;;;;;;;;;;;;;;;5081004;28;830;-76
2022/10/09 12:16:48;;;;;;;;;;;;;;;;;;5081049;28;937;-76
2022/10/09 12:19:24;;;;;;;;;;;;;;;;;;5080688;28;1182;-76
2022/10/09 12:21:52;;;;;;;;;;;;;;;;;;5062912;28;816;-76
2022/10/09 12:24:22;;;;;;;;;;;;;;;;;;5080793;28;890;-76
2022/10/09 12:26:49;;;;;;;;;;;;;;;;;;5063029;28;1914;-76
2022/10/09 12:29:18;;;;;;;;;;;;;;;;;;5080712;28;1255;-76
2022/10/09 12:31:44;;;;;;;;;;;;;;;;;;5080887;28;1835;-77
2022/10/09 12:34:17;;;;;;;;;;;;;;;;;;5080814;28;775;-76
2022/10/09 12:36:42;;;;;;;;;;;;;;;;;;5080572;28;819;-76
2022/10/09 12:39:17;;;;;;;;;;;;;;;;;;5080640;28;1255;-76
2022/10/09 12:41:44;;;;;;;;;;;;;;;;;;5080832;28;981;-76
2022/10/09 12:44:29;;;;;;;;;;;;;;;;;;5062735;28;831;-76
2022/10/09 12:46:58;;;;;;;;;;;;;;;;;;5080800;28;1898;-76
2022/10/09 12:49:24;;;;;;;;;;;;;;;;;;5069968;22;2438;-69
2022/10/09 12:51:51;;;;;;;;;;;;;;;;;;5060499;28;772;-69
2022/10/09 12:54:16;;;;;;;;;;;;;;;;;;5060480;28;973;-69
2022/10/09 12:56:42;;;;;;;;;;;;;;;;;;5060070;28;820;-69
2022/10/09 12:59:08;;;;;;;;;;;;;;;;;;5057815;28;1153;-69
2022/10/09 13:01:34;;;;;;;;;;;;;;;;;;5043080;28;852;-69
2022/10/09 13:04:02;;;;;;;;;;;;;;;;;;5043808;28;827;-69
2022/10/09 13:06:47;;;;;;;;;;;;;;;;;;5043516;28;1906;-69
2022/10/09 13:09:21;;;;;;;;;;;;;;;;;;5041729;28;1290;-69
2022/10/09 13:11:52;;;;;;;;;;;;;;;;;;5043702;28;823;-69
2022/10/09 13:14:26;;;;;;;;;;;;;;;;;;5044021;28;854;-69
2022/10/09 13:16:52;;;;;;;;;;;;;;;;;;5043569;28;748;-69
2022/10/09 13:19:23;;;;;;;;;;;;;;;;;;5043544;28;1231;-69
2022/10/09 13:22:15;;;;;;;;;;;;;;;;;;5043550;28;791;-69
2022/10/09 13:24:40;;;;;;;;;;;;;;;;;;5043429;28;811;-69
2022/10/09 13:27:05;;;;;;;;;;;;;;;;;;5043395;28;1902;-68
2022/10/09 13:29:30;;;;;;;;;;;;;;;;;;5043666;28;1164;-69
2022/10/09 13:31:56;;;;;;;;;;;;;;;;;;5043389;28;866;-69
2022/10/09 13:34:23;;;;;;;;;;;;;;;;;;5043491;28;954;-69
2022/10/09 13:36:48;;;;;;;;;;;;;;;;;;5043156;28;937;-69
2022/10/09 13:39:14;;;;;;;;;;;;;;;;;;5043155;28;1278;-69
2022/10/09 13:41:40;;;;;;;;;;;;;;;;;;5043232;28;732;-69
2022/10/09 13:44:05;;;;;;;;;;;;;;;;;;5043244;28;918;-69
2022/10/09 13:46:31;;;;;;;;;;;;;;;;;;5042820;28;1890;-69
2022/10/09 13:48:56;;;;;;;;;;;;;;;;;;5043184;28;1250;-69
2022/10/09 13:51:21;;;;;;;;;;;;;;;;;;5042916;28;1013;-69
2022/10/09 13:53:46;;;;;;;;;;;;;;;;;;5043342;28;842;-69
2022/10/09 13:56:11;;;;;;;;;;;;;;;;;;5042658;28;1234;-68
2022/10/09 13:58:36;;;;;;;;;;;;;;;;;;5043124;28;807;-69
2022/10/09 14:01:02;;;;;;;;;;;;;;;;;;5042861;28;1168;-69
2022/10/09 14:03:27;;;;;;;;;;;;;;;;;;5043202;28;874;-69
2022/10/09 14:05:58;;;;;;;;;;;;;;;;;;5042643;28;1952;-69
2022/10/09 14:08:24;;;;;;;;;;;;;;;;;;5042833;28;870;-69
2022/10/09 14:10:49;;;;;;;;;;;;;;;;;;5042875;28;1140;-69
2022/10/09 14:13:14;;;;;;;;;;;;;;;;;;5041871;28;941;-69
2022/10/09 14:15:40;;;;;;;;;;;;;;;;;;5042473;28;990;-69
2022/10/09 14:18:05;;;;;;;;;;;;;;;;;;5042733;28;1035;-69
2022/10/09 14:20:31;;;;;;;;;;;;;;;;;;5042698;28;1243;-68
2022/10/09 14:22:56;;;;;;;;;;;;;;;;;;5042640;28;1071;-69
2022/10/09 14:25:22;;;;;;;;;;;;;;;;;;5042421;28;1898;-69
2022/10/09 14:27:47;;;;;;;;;;;;;;;;;;5042541;28;945;-69
2022/10/09 14:30:12;;;;;;;;;;;;;;;;;;5042356;28;1187;-69
2022/10/09 14:32:37;;;;;;;;;;;;;;;;;;5042388;28;913;-69
2022/10/09 14:35:02;;;;;;;;;;;;;;;;;;5042021;28;878;-68
2022/10/09 14:37:28;;;;;;;;;;;;;;;;;;5042354;28;934;-69
2022/10/09 14:39:53;;;;;;;;;;;;;;;;;;5042382;28;1231;-69
2022/10/09 14:42:18;;;;;;;;;;;;;;;;;;5042451;28;854;-69
2022/10/09 14:44:43;;;;;;;;;;;;;;;;;;5042351;28;851;-69
2022/10/09 14:47:08;;;;;;;;;;;;;;;;;;5042073;28;1889;-69
2022/10/09 14:49:33;;;;;;;;;;;;;;;;;;5042120;28;1168;-69
2022/10/09 14:51:59;;;;;;;;;;;;;;;;;;5041980;28;811;-69
2022/10/09 14:54:24;;;;;;;;;;;;;;;;;;5042237;28;1060;-69
2022/10/09 14:56:49;;;;;;;;;;;;;;;;;;5041553;28;869;-69
2022/10/09 14:59:14;;;;;;;;;;;;;;;;;;5041694;28;1160;-69
2022/10/09 15:01:39;;;;;;;;;;;;;;;;;;5042144;28;898;-69
2022/10/09 15:04:05;;;;;;;;;;;;;;;;;;5042383;28;854;-69
2022/10/09 15:06:31;;;;;;;;;;;;;;;;;;5041557;28;1898;-68
2022/10/09 15:09:00;;;;;;;;;;;;;;;;;;5041478;28;1132;-69
2022/10/09 15:11:26;;;;;;;;;;;;;;;;;;5041888;28;861;-69
2022/10/09 15:13:52;;;;;;;;;;;;;;;;;;5041792;28;879;-70
2022/10/09 15:16:18;;;;;;;;;;;;;;;;;;5041557;28;851;-69
2022/10/09 15:18:43;;;;;;;;;;;;;;;;;;5041713;28;815;-69
2022/10/09 15:21:13;;;;;;;;;;;;;;;;;;5041595;28;1196;-69
2022/10/09 15:23:38;;;;;;;;;;;;;;;;;;5041658;28;902;-69
2022/10/09 15:26:03;;;;;;;;;;;;;;;;;;5041389;28;1947;-69
2022/10/09 15:28:28;;;;;;;;;;;;;;;;;;5041690;28;930;-69
2022/10/09 15:30:56;;;;;;;;;;;;;;;;;;5041371;28;1164;-69
2022/10/09 15:33:21;;;;;;;;;;;;;;;;;;5041576;28;1021;-69
2022/10/09 15:35:46;;;;;;;;;;;;;;;;;;5041279;28;935;-69
2022/10/09 15:38:14;;;;;;;;;;;;;;;;;;5041527;28;969;-69
2022/10/09 15:40:40;;;;;;;;;;;;;;;;;;5041372;28;1141;-69
2022/10/09 15:43:05;;;;;;;;;;;;;;;;;;5041541;28;831;-69
2022/10/09 15:45:32;;;;;;;;;;;;;;;;;;5041303;28;1898;-69
2022/10/09 15:47:58;;;;;;;;;;;;;;;;;;5041501;28;1005;-69
2022/10/09 15:50:23;;;;;;;;;;;;;;;;;;5040981;28;1152;-69
2022/10/09 15:52:48;;;;;;;;;;;;;;;;;;5041455;28;989;-69
2022/10/09 15:55:13;;;;;;;;;;;;;;;;;;5040999;28;945;-69
2022/10/09 15:57:38;;;;;;;;;;;;;;;;;;5041986;28;724;-69
2022/10/09 16:00:04;;;;;;;;;;;;;;;;;;5040947;28;1255;-69
2022/10/09 16:02:29;;;;;;;;;;;;;;;;;;5041305;28;1222;-69
2022/10/09 16:04:54;;;;;;;;;;;;;;;;;;5040749;28;918;-69
2022/10/09 16:07:19;;;;;;;;;;;;;;;;;;5041163;28;1957;-69
2022/10/09 16:09:45;;;;;;;;;;;;;;;;;;5040742;28;1156;-70
2022/10/09 16:12:10;;;;;;;;;;;;;;;;;;5041224;28;858;-69
2022/10/09 16:14:37;;;;;;;;;;;;;;;;;;5040814;28;807;-69
2022/10/09 16:17:02;;;;;;;;;;;;;;;;;;5041100;28;862;-69
2022/10/09 16:19:27;;;;;;;;;;;;;;;;;;5040750;28;1152;-69
2022/10/09 16:21:52;;;;;;;;;;;;;;;;;;5041030;28;865;-70
2022/10/09 16:24:17;;;;;;;;;;;;;;;;;;5040824;28;1001;-69
2022/10/09 16:26:43;;;;;;;;;;;;;;;;;;5040541;28;1967;-69
2022/10/09 16:29:08;;;;;;;;;;;;;;;;;;5040772;28;1167;-69
2022/10/09 16:31:34;;;;;;;;;;;;;;;;;;5040811;28;815;-69
2022/10/09 16:33:59;;;;;;;;;;;;;;;;;;5040773;28;883;-69
2022/10/09 16:36:24;;;;;;;;;;;;;;;;;;5043089;28;1005;-70
2022/10/09 16:38:50;;;;;;;;;;;;;;;;;;5044475;28;1148;-69
2022/10/09 16:41:16;;;;;;;;;;;;;;;;;;5044089;28;918;-69
2022/10/09 16:43:42;;;;;;;;;;;;;;;;;;5044350;28;1745;-69
2022/10/09 16:46:27;;;;;;;;;;;;;;;;;;5043805;28;1893;-69
2022/10/09 16:48:53;;;;;;;;;;;;;;;;;;5044163;28;1222;-69
2022/10/09 16:51:20;;;;;;;;;;;;;;;;;;5043918;28;950;-69
2022/10/09 16:53:49;;;;;;;;;;;;;;;;;;5044193;28;815;-69
2022/10/09 16:56:15;;;;;;;;;;;;;;;;;;5043860;28;866;-70
2022/10/09 16:58:42;;;;;;;;;;;;;;;;;;5043867;28;973;-69
2022/10/09 17:01:08;;;;;;;;;;;;;;;;;;5043916;28;1160;-70
2022/10/09 17:03:33;;;;;;;;;;;;;;;;;;5044038;28;950;-70
2022/10/09 17:05:58;;;;;;;;;;;;;;;;;;5043479;28;1953;-69
2022/10/09 17:08:24;;;;;;;;;;;;;;;;;;5043951;28;795;-69
2022/10/09 17:10:49;;;;;;;;;;;;;;;;;;5043492;28;1319;-69
2022/10/09 17:13:14;;;;;;;;;;;;;;;;;;5043873;28;807;-69
2022/10/09 17:15:39;;;;;;;;;;;;;;;;;;5043256;28;1072;-70